createdAt,value
2023-04-16T00:02:37.078Z,55.50
2023-04-16T00:05:22.688Z,55.70
2023-04-16T00:08:08.273Z,55.60
2023-04-16T00:10:56.249Z,55.70
2023-04-16T00:13:42.066Z,55.50
2023-04-16T00:16:30.359Z,54.90
2023-04-16T00:19:16.179Z,55.30
2023-04-16T00:22:01.680Z,55.00
2023-04-16T00:24:47.034Z,54.90
2023-04-16T00:27:32.570Z,54.30
2023-04-16T00:30:18.242Z,54.90
2023-04-16T00:33:04.812Z,54.40
2023-04-16T00:35:53.415Z,54.30
2023-04-16T00:38:41.248Z,54.20
2023-04-16T00:41:27.424Z,54.30
2023-04-16T00:44:13.029Z,54.00
2023-04-16T00:46:59.589Z,54.00
2023-04-16T00:49:45.370Z,54.30
2023-04-16T00:52:32.742Z,54.20
2023-04-16T00:55:21.325Z,54.10
2023-04-16T00:58:06.996Z,54.30
2023-04-16T01:00:55.664Z,54.10
2023-04-16T01:03:47.557Z,53.70
2023-04-16T01:06:35.246Z,53.70
2023-04-16T01:09:20.639Z,53.90
2023-04-16T01:12:05.976Z,54.20
2023-04-16T01:14:53.755Z,53.80
2023-04-16T01:17:39.329Z,53.50
2023-04-16T01:20:27.482Z,54.00
2023-04-16T01:23:15.653Z,53.50
2023-04-16T01:26:01.351Z,54.00
2023-04-16T01:28:46.715Z,54.20
2023-04-16T01:31:32.139Z,54.30
2023-04-16T01:34:17.562Z,54.20
2023-04-16T01:37:05.721Z,54.10
2023-04-16T01:39:50.925Z,53.70
2023-04-16T01:42:37.310Z,53.90
2023-04-16T01:45:22.865Z,53.80
2023-04-16T01:48:09.377Z,53.50
2023-04-16T01:50:56.699Z,53.40
2023-04-16T01:53:41.791Z,53.60
2023-04-16T01:56:27.495Z,53.50
2023-04-16T01:59:12.783Z,53.20
2023-04-16T02:02:07.236Z,53.00
2023-04-16T02:04:52.945Z,53.10
2023-04-16T02:07:38.456Z,53.00
2023-04-16T02:10:26.584Z,53.10
2023-04-16T02:13:12.106Z,52.80
2023-04-16T02:15:57.564Z,52.90
2023-04-16T02:18:42.795Z,52.70
2023-04-16T02:21:28.494Z,53.60
2023-04-16T02:24:14.058Z,53.30
2023-04-16T02:27:01.532Z,53.40
2023-04-16T02:29:46.961Z,53.20
2023-04-16T02:32:32.412Z,53.40
2023-04-16T02:35:18.754Z,53.20
2023-04-16T02:38:05.180Z,52.70
2023-04-16T02:40:51.319Z,52.70
2023-04-16T02:43:36.669Z,53.10
2023-04-16T02:46:25.482Z,53.40
2023-04-16T02:49:11.316Z,53.70
2023-04-16T02:51:56.893Z,53.50
2023-04-16T02:54:42.362Z,54.00
2023-04-16T02:57:27.791Z,53.70
2023-04-16T03:00:16.572Z,53.30
2023-04-16T03:03:02.138Z,53.40
2023-04-16T03:05:50.967Z,53.90
2023-04-16T03:08:36.336Z,53.40
2023-04-16T03:11:22.424Z,53.70
2023-04-16T03:14:08.427Z,53.10
2023-04-16T03:16:54.167Z,53.80
2023-04-16T03:19:39.899Z,53.60
2023-04-16T03:22:25.629Z,53.50
2023-04-16T03:25:11.198Z,53.60
2023-04-16T03:27:59.011Z,53.60
2023-04-16T03:30:51.243Z,53.40
2023-04-16T03:33:36.601Z,54.10
2023-04-16T03:36:22.889Z,54.40
2023-04-16T03:39:08.716Z,54.50
2023-04-16T03:41:57.084Z,54.30
2023-04-16T03:44:43.546Z,54.40
2023-04-16T03:47:29.093Z,54.80
2023-04-16T03:50:15.253Z,54.60
2023-04-16T03:53:01.016Z,54.30
2023-04-16T03:55:49.558Z,54.40
2023-04-16T03:58:34.851Z,54.10
2023-04-16T04:01:20.856Z,53.90
2023-04-16T04:04:06.341Z,54.90
2023-04-16T04:06:52.112Z,53.90
2023-04-16T04:09:37.639Z,54.30
2023-04-16T04:12:23.163Z,54.40
2023-04-16T04:15:09.435Z,54.90
2023-04-16T04:17:54.875Z,54.50
2023-04-16T04:20:42.907Z,54.60
2023-04-16T04:23:28.551Z,54.30
2023-04-16T04:26:14.215Z,54.40
2023-04-16T04:29:02.123Z,54.20
2023-04-16T04:31:49.884Z,53.90
2023-04-16T04:34:35.135Z,53.90
2023-04-16T04:37:21.421Z,53.80
2023-04-16T04:40:07.757Z,53.80
2023-04-16T04:42:53.126Z,53.70
2023-04-16T04:45:38.671Z,54.10
2023-04-16T04:48:26.863Z,54.30
2023-04-16T04:51:13.466Z,53.80
2023-04-16T04:54:03.874Z,54.00
2023-04-16T04:56:49.288Z,53.50
2023-04-16T04:59:34.474Z,53.40
2023-04-16T05:02:22.261Z,54.30
2023-04-16T05:05:08.599Z,53.50
2023-04-16T05:07:56.737Z,53.30
2023-04-16T05:10:42.357Z,53.60
2023-04-16T05:13:28.019Z,53.40
2023-04-16T05:16:16.217Z,53.30
2023-04-16T05:19:01.427Z,53.30
2023-04-16T05:21:46.936Z,53.30
2023-04-16T05:24:32.444Z,53.30
2023-04-16T05:27:17.911Z,53.60
2023-04-16T05:30:03.616Z,53.40
2023-04-16T05:32:48.779Z,53.20
2023-04-16T05:35:35.104Z,53.30
2023-04-16T05:38:21.103Z,53.70
2023-04-16T05:41:06.479Z,53.70
2023-04-16T05:43:52.052Z,53.80
2023-04-16T05:46:37.383Z,53.80
2023-04-16T05:49:23.189Z,53.20
2023-04-16T05:52:08.382Z,53.20
2023-04-16T05:54:53.910Z,53.00
2023-04-16T05:57:39.476Z,52.40
2023-04-16T06:00:28.185Z,52.50
2023-04-16T06:03:13.708Z,52.30
2023-04-16T06:05:59.461Z,52.50
2023-04-16T06:08:45.858Z,51.60
2023-04-16T06:11:31.275Z,51.00
2023-04-16T06:14:21.813Z,50.50
2023-04-16T06:17:09.346Z,50.00
2023-04-16T06:19:55.234Z,49.90
2023-04-16T06:22:43.199Z,50.20
2023-04-16T06:25:28.484Z,49.40
2023-04-16T06:28:14.004Z,49.00
2023-04-16T06:31:00.540Z,48.90
2023-04-16T06:33:45.897Z,48.60
2023-04-16T06:36:33.715Z,48.10
2023-04-16T06:39:21.893Z,47.40
2023-04-16T06:42:07.861Z,47.90
2023-04-16T06:44:53.371Z,47.00
2023-04-16T06:47:38.635Z,47.10
2023-04-16T06:50:28.488Z,46.30
2023-04-16T06:53:13.927Z,46.30
2023-04-16T06:55:59.378Z,46.00
2023-04-16T06:58:45.253Z,45.30
2023-04-16T07:01:33.575Z,45.50
2023-04-16T07:04:21.906Z,44.50
2023-04-16T07:07:08.278Z,44.60
2023-04-16T07:09:59.069Z,44.80
2023-04-16T07:12:44.590Z,44.50
2023-04-16T07:15:32.045Z,44.60
2023-04-16T07:18:20.782Z,44.90
2023-04-16T07:21:08.949Z,44.00
2023-04-16T07:23:54.420Z,44.80
2023-04-16T07:26:39.625Z,44.40
2023-04-16T07:29:27.353Z,44.90
2023-04-16T07:32:15.738Z,45.50
2023-04-16T07:35:01.648Z,45.30
2023-04-16T07:37:47.025Z,45.60
2023-04-16T07:40:32.816Z,45.90
2023-04-16T07:43:18.620Z,45.60
2023-04-16T07:46:04.274Z,45.50
2023-04-16T07:48:49.772Z,45.90
2023-04-16T07:51:35.506Z,45.70
2023-04-16T07:54:21.193Z,46.00
2023-04-16T07:57:07.234Z,46.30
2023-04-16T07:59:52.465Z,45.90
2023-04-16T08:02:38.029Z,45.20
2023-04-16T08:05:24.121Z,45.50
2023-04-16T08:08:09.814Z,44.50
2023-04-16T08:10:56.079Z,45.90
2023-04-16T08:13:42.233Z,46.90
2023-04-16T08:16:27.566Z,46.80
2023-04-16T08:19:13.490Z,47.00
2023-04-16T08:21:59.742Z,47.00
2023-04-16T08:24:45.046Z,47.00
2023-04-16T08:27:30.724Z,47.00
2023-04-16T08:30:16.771Z,46.70
2023-04-16T08:33:02.169Z,47.10
2023-04-16T08:35:52.411Z,46.90
2023-04-16T08:38:37.813Z,46.90
2023-04-16T08:41:25.641Z,47.30
2023-04-16T08:44:24.751Z,47.20
2023-04-16T08:47:13.533Z,47.30
2023-04-16T08:49:59.260Z,46.60
2023-04-16T08:52:58.722Z,45.90
2023-04-16T08:55:48.861Z,45.70
2023-04-16T08:58:35.670Z,45.90
2023-04-16T09:01:22.256Z,45.50
2023-04-16T09:04:08.114Z,45.10
2023-04-16T09:06:55.759Z,45.30
2023-04-16T09:09:43.844Z,45.80
2023-04-16T09:12:31.760Z,45.80
2023-04-16T09:15:17.292Z,45.70
2023-04-16T09:18:02.812Z,46.00
2023-04-16T09:20:49.695Z,43.80
2023-04-16T09:23:36.692Z,43.60
2023-04-16T09:26:23.159Z,41.90
2023-04-16T09:29:09.773Z,41.20
2023-04-16T09:32:06.286Z,41.40
2023-04-16T09:34:56.778Z,41.30
2023-04-16T09:37:42.387Z,40.30
2023-04-16T09:40:30.535Z,39.90
2023-04-16T09:43:20.846Z,38.90
2023-04-16T09:46:08.112Z,39.80
2023-04-16T09:48:56.347Z,40.70
2023-04-16T09:51:44.101Z,40.40
2023-04-16T09:54:32.227Z,41.00
2023-04-16T09:57:25.308Z,40.90
2023-04-16T10:00:11.575Z,41.10
2023-04-16T10:03:07.546Z,40.60
2023-04-16T10:05:56.157Z,40.00
2023-04-16T10:08:51.230Z,38.30
2023-04-16T10:11:40.691Z,38.10
2023-04-16T10:14:28.406Z,37.90
2023-04-16T10:17:13.909Z,37.10
2023-04-16T10:20:01.503Z,37.20
2023-04-16T10:22:47.682Z,37.30
2023-04-16T10:25:34.189Z,37.10
2023-04-16T10:28:20.558Z,36.10
2023-04-16T10:31:09.905Z,36.50
2023-04-16T10:33:56.249Z,35.20
2023-04-16T10:36:50.139Z,35.40
2023-04-16T10:39:37.585Z,33.30
2023-04-16T10:42:24.245Z,33.80
2023-04-16T10:45:14.006Z,33.10
2023-04-16T10:47:59.510Z,33.50
2023-04-16T10:50:58.749Z,33.50
2023-04-16T10:53:47.842Z,33.90
2023-04-16T10:56:34.058Z,33.00
2023-04-16T10:59:21.638Z,33.40
2023-04-16T11:02:12.998Z,34.20
2023-04-16T11:04:58.954Z,34.40
2023-04-16T11:07:49.803Z,36.00
2023-04-16T11:10:39.438Z,36.10
2023-04-16T11:13:25.775Z,34.30
2023-04-16T11:16:15.813Z,31.60
2023-04-16T11:19:05.950Z,29.20
2023-04-16T11:21:55.762Z,28.70
2023-04-16T11:24:42.201Z,27.70
2023-04-16T11:27:27.739Z,27.60
2023-04-16T11:30:13.606Z,28.10
2023-04-16T11:32:59.579Z,28.20
2023-04-16T11:35:46.031Z,29.70
2023-04-16T11:38:42.949Z,30.00
2023-04-16T11:41:31.021Z,30.50
2023-04-16T11:44:24.184Z,31.00
2023-04-16T11:47:09.720Z,31.30
2023-04-16T11:49:58.506Z,32.20
2023-04-16T11:52:47.063Z,31.80
2023-04-16T11:55:32.646Z,31.40
2023-04-16T11:58:22.288Z,31.20
2023-04-16T12:01:10.133Z,30.80
2023-04-16T12:04:03.306Z,30.20
2023-04-16T12:07:12.170Z,29.20
2023-04-16T12:10:08.425Z,29.80
2023-04-16T12:13:09.190Z,30.70
2023-04-16T12:15:56.126Z,31.90
2023-04-16T12:18:59.977Z,33.80
2023-04-16T12:21:49.863Z,32.80
2023-04-16T12:24:36.949Z,34.00
2023-04-16T12:27:28.511Z,34.20
2023-04-16T12:30:15.713Z,34.20
2023-04-16T12:33:18.884Z,34.30
2023-04-16T12:36:20.812Z,34.80
2023-04-16T12:39:10.817Z,35.20
2023-04-16T12:41:56.364Z,36.00
2023-04-16T12:44:44.665Z,36.90
2023-04-16T12:47:33.846Z,37.10
2023-04-16T12:50:19.373Z,37.40
2023-04-16T12:53:04.981Z,37.70
2023-04-16T12:55:50.515Z,37.70
2023-04-16T12:58:35.837Z,37.90
2023-04-16T13:01:23.928Z,38.20
2023-04-16T13:04:09.974Z,38.80
2023-04-16T13:06:55.993Z,38.60
2023-04-16T13:09:41.566Z,39.60
2023-04-16T13:12:28.455Z,40.10
2023-04-16T13:15:14.730Z,39.90
2023-04-16T13:18:00.065Z,39.70
2023-04-16T13:20:45.815Z,39.20
2023-04-16T13:23:31.932Z,39.10
2023-04-16T13:26:19.858Z,39.00
2023-04-16T13:29:05.489Z,38.70
2023-04-16T13:31:51.148Z,37.40
2023-04-16T13:34:38.818Z,36.80
2023-04-16T13:37:24.133Z,36.40
2023-04-16T13:40:09.732Z,35.00
2023-04-16T13:42:57.325Z,34.40
2023-04-16T13:45:42.814Z,32.70
2023-04-16T13:48:28.701Z,32.70
2023-04-16T13:51:16.657Z,32.60
2023-04-16T13:54:02.261Z,32.30
2023-04-16T13:56:47.903Z,31.30
2023-04-16T13:59:33.707Z,31.80
2023-04-16T14:02:18.974Z,30.70
2023-04-16T14:05:05.573Z,29.40
2023-04-16T14:07:53.801Z,28.80
2023-04-16T14:10:41.697Z,27.50
2023-04-16T14:13:27.527Z,27.40
2023-04-16T14:16:13.887Z,27.20
2023-04-16T14:18:59.733Z,27.00
2023-04-16T14:21:45.251Z,27.30
2023-04-16T14:24:31.058Z,27.50
2023-04-16T14:27:17.103Z,26.50
2023-04-16T14:30:04.981Z,28.00
2023-04-16T14:32:53.841Z,28.60
2023-04-16T14:35:39.656Z,29.10
2023-04-16T14:38:25.032Z,29.70
2023-04-16T14:41:12.383Z,30.20
2023-04-16T14:44:02.288Z,31.20
2023-04-16T14:46:47.754Z,32.00
2023-04-16T14:49:33.934Z,32.10
2023-04-16T14:52:19.541Z,32.80
2023-04-16T14:55:07.344Z,33.80
2023-04-16T14:57:52.545Z,34.60
2023-04-16T15:00:40.582Z,34.90
2023-04-16T15:03:26.669Z,36.30
2023-04-16T15:06:13.846Z,37.10
2023-04-16T15:09:01.848Z,38.30
2023-04-16T15:11:47.470Z,39.40
2023-04-16T15:14:32.949Z,40.00
2023-04-16T15:17:19.822Z,40.60
2023-04-16T15:20:09.110Z,41.00
2023-04-16T15:22:54.530Z,41.70
2023-04-16T15:25:40.060Z,41.20
2023-04-16T15:28:25.547Z,41.80
2023-04-16T15:31:11.410Z,41.10
2023-04-16T15:33:59.623Z,40.60
2023-04-16T15:36:47.191Z,40.60
2023-04-16T15:39:32.706Z,40.30
2023-04-16T15:42:17.964Z,39.80
2023-04-16T15:45:03.576Z,39.50
2023-04-16T15:47:51.418Z,39.50
2023-04-16T15:50:39.962Z,39.40
2023-04-16T15:53:25.761Z,39.40
2023-04-16T15:56:11.595Z,38.80
2023-04-16T15:58:56.831Z,39.60
2023-04-16T16:01:42.192Z,39.50
2023-04-16T16:04:28.223Z,40.10
2023-04-16T16:07:18.290Z,39.50
2023-04-16T16:10:04.588Z,39.30
2023-04-16T16:12:52.791Z,39.50
2023-04-16T16:15:42.070Z,40.20
2023-04-16T16:18:27.641Z,39.40
2023-04-16T16:21:12.907Z,39.50
2023-04-16T16:23:58.198Z,40.40
2023-04-16T16:26:44.012Z,39.50
2023-04-16T16:29:30.051Z,40.00
2023-04-16T16:32:16.403Z,40.10
2023-04-16T16:35:02.158Z,40.10
2023-04-16T16:37:47.544Z,40.10
2023-04-16T16:40:34.030Z,39.70
2023-04-16T16:43:20.296Z,39.70
2023-04-16T16:46:09.906Z,39.80
2023-04-16T16:48:56.699Z,40.10
2023-04-16T16:51:42.888Z,40.50
2023-04-16T16:54:30.914Z,40.80
2023-04-16T16:57:19.334Z,41.40
2023-04-16T17:00:14.116Z,41.30
2023-04-16T17:02:59.842Z,41.40
2023-04-16T17:05:45.706Z,41.30
2023-04-16T17:08:33.730Z,42.30
2023-04-16T17:11:19.119Z,43.00
2023-04-16T17:14:06.874Z,43.10
2023-04-16T17:16:52.454Z,43.00
2023-04-16T17:19:37.788Z,43.40
2023-04-16T17:22:26.126Z,43.40
2023-04-16T17:25:11.682Z,43.90
2023-04-16T17:27:57.183Z,43.50
2023-04-16T17:30:42.884Z,43.90
2023-04-16T17:33:28.346Z,44.10
2023-04-16T17:36:14.060Z,44.20
2023-04-16T17:38:59.581Z,44.30
2023-04-16T17:41:45.331Z,43.90
2023-04-16T17:44:31.036Z,44.50
2023-04-16T17:47:16.222Z,44.90
2023-04-16T17:50:02.319Z,45.20
2023-04-16T17:52:47.866Z,45.30
2023-04-16T17:55:35.759Z,45.70
2023-04-16T17:58:21.752Z,46.10
2023-04-16T18:01:07.262Z,45.90
2023-04-16T18:03:55.107Z,45.80
2023-04-16T18:06:40.927Z,45.40
2023-04-16T18:09:26.516Z,46.80
2023-04-16T18:12:12.182Z,46.40
2023-04-16T18:14:57.891Z,46.20
2023-04-16T18:17:44.023Z,46.80
2023-04-16T18:20:29.944Z,47.10
2023-04-16T18:23:16.134Z,47.10
2023-04-16T18:26:01.727Z,47.00
2023-04-16T18:28:47.283Z,47.00
2023-04-16T18:31:32.893Z,46.20
2023-04-16T18:34:18.772Z,46.40
2023-04-16T18:37:04.642Z,46.60
2023-04-16T18:39:50.461Z,46.30
2023-04-16T18:42:36.207Z,46.60
2023-04-16T18:45:22.054Z,46.80
2023-04-16T18:48:07.577Z,46.90
2023-04-16T18:50:58.063Z,46.80
2023-04-16T18:53:45.612Z,46.90
2023-04-16T18:56:32.227Z,46.80
2023-04-16T18:59:17.470Z,47.00
2023-04-16T19:02:03.921Z,47.00
2023-04-16T19:04:49.422Z,47.10
2023-04-16T19:07:38.623Z,47.20
2023-04-16T19:10:24.025Z,47.50
2023-04-16T19:13:11.691Z,47.40
2023-04-16T19:16:01.642Z,47.20
2023-04-16T19:18:50.632Z,47.30
2023-04-16T19:21:37.061Z,47.40
2023-04-16T19:24:23.511Z,47.60
2023-04-16T19:27:11.210Z,47.80
2023-04-16T19:29:59.160Z,47.80
2023-04-16T19:32:44.805Z,48.10
2023-04-16T19:35:30.683Z,48.50
2023-04-16T19:38:16.484Z,48.40
2023-04-16T19:41:02.620Z,48.40
2023-04-16T19:43:47.958Z,48.60
2023-04-16T19:46:36.187Z,48.50
2023-04-16T19:49:22.458Z,48.60
2023-04-16T19:52:08.037Z,48.10
2023-04-16T19:54:54.339Z,47.50
2023-04-16T19:57:42.495Z,47.20
2023-04-16T20:00:28.226Z,47.50
2023-04-16T20:03:16.253Z,46.50
2023-04-16T20:06:05.467Z,46.70
2023-04-16T20:08:54.223Z,46.80
2023-04-16T20:11:39.705Z,46.90
2023-04-16T20:14:26.279Z,46.60
2023-04-16T20:17:12.062Z,46.30
2023-04-16T20:20:00.994Z,46.00
2023-04-16T20:22:47.041Z,46.60
2023-04-16T20:25:32.266Z,46.50
2023-04-16T20:28:21.619Z,46.50
2023-04-16T20:31:07.694Z,46.80
2023-04-16T20:33:55.913Z,46.60
2023-04-16T20:36:41.791Z,46.80
2023-04-16T20:39:27.398Z,47.10
2023-04-16T20:42:15.974Z,47.00
2023-04-16T20:45:01.785Z,46.50
2023-04-16T20:47:47.085Z,46.80
2023-04-16T20:50:33.232Z,47.10
2023-04-16T20:53:20.188Z,46.60
2023-04-16T20:56:06.806Z,46.80
2023-04-16T20:58:55.877Z,46.90
2023-04-16T21:01:43.284Z,46.80
2023-04-16T21:04:31.385Z,47.50
2023-04-16T21:07:19.730Z,47.70
2023-04-16T21:10:05.389Z,47.90
2023-04-16T21:12:51.794Z,48.30
2023-04-16T21:15:41.813Z,47.80
2023-04-16T21:18:27.321Z,48.70
2023-04-16T21:21:12.651Z,48.90
2023-04-16T21:23:58.661Z,49.10
2023-04-16T21:26:44.282Z,48.90
2023-04-16T21:29:29.641Z,49.40
2023-04-16T21:32:14.939Z,49.80
2023-04-16T21:35:00.655Z,50.00
2023-04-16T21:37:46.508Z,50.30
2023-04-16T21:40:34.331Z,50.50
2023-04-16T21:43:23.612Z,51.00
2023-04-16T21:46:08.955Z,51.00
2023-04-16T21:48:54.338Z,51.00
2023-04-16T21:51:40.775Z,51.30
2023-04-16T21:54:26.664Z,51.30
2023-04-16T21:57:12.872Z,51.80
2023-04-16T21:59:58.650Z,52.80
2023-04-16T22:02:44.374Z,52.90
2023-04-16T22:05:33.265Z,53.30
2023-04-16T22:08:24.838Z,53.70
2023-04-16T22:11:11.300Z,53.90
2023-04-16T22:14:03.104Z,54.30
2023-04-16T22:16:51.614Z,54.80
2023-04-16T22:19:37.350Z,55.20
2023-04-16T22:22:23.785Z,55.40
2023-04-16T22:25:10.161Z,55.80
2023-04-16T22:27:55.663Z,55.80
2023-04-16T22:30:41.129Z,56.60
2023-04-16T22:33:29.579Z,57.20
2023-04-16T22:36:15.555Z,58.20
2023-04-16T22:39:01.688Z,58.30
2023-04-16T22:41:47.510Z,58.90
2023-04-16T22:44:33.196Z,58.90
2023-04-16T22:47:21.476Z,58.90
2023-04-16T22:50:08.463Z,58.60
2023-04-16T22:52:56.320Z,58.40
2023-04-16T22:55:41.693Z,57.90
2023-04-16T22:58:29.656Z,58.10
2023-04-16T23:01:21.619Z,57.90
2023-04-16T23:04:07.780Z,57.40
2023-04-16T23:06:55.931Z,56.90
2023-04-16T23:09:42.024Z,56.70
2023-04-16T23:12:27.742Z,56.80
2023-04-16T23:15:13.281Z,56.50
2023-04-16T23:17:59.243Z,56.60
2023-04-16T23:20:44.493Z,56.40
2023-04-16T23:23:30.222Z,55.60
2023-04-16T23:26:16.198Z,55.20
2023-04-16T23:29:02.109Z,54.50
2023-04-16T23:31:47.816Z,53.50
2023-04-16T23:34:33.457Z,53.60
2023-04-16T23:37:19.058Z,53.00
2023-04-16T23:40:05.028Z,52.90
2023-04-16T23:42:50.332Z,52.10
2023-04-16T23:45:35.876Z,52.40
2023-04-16T23:48:21.786Z,51.40
2023-04-16T23:51:07.476Z,51.20
2023-04-16T23:53:55.531Z,50.70
2023-04-16T23:56:42.454Z,50.70
2023-04-16T23:59:28.105Z,50.70
